createdAt,value
2023-05-22T00:01:56.861Z,15.93
2023-05-22T00:04:24.203Z,15.70
2023-05-22T00:06:51.460Z,15.48
2023-05-22T00:09:18.806Z,14.93
2023-05-22T00:11:46.157Z,15.95
2023-05-22T00:14:13.835Z,16.15
2023-05-22T00:16:41.474Z,16.45
2023-05-22T00:19:16.927Z,16.00
2023-05-22T00:21:44.255Z,15.95
2023-05-22T00:24:11.674Z,18.08
2023-05-22T00:26:38.965Z,15.85
2023-05-22T00:29:06.214Z,16.88
2023-05-22T00:31:33.482Z,17.88
2023-05-22T00:34:00.836Z,16.60
2023-05-22T00:36:28.082Z,16.65
2023-05-22T00:38:55.533Z,16.42
2023-05-22T00:41:22.975Z,17.58
2023-05-22T00:43:51.367Z,17.40
2023-05-22T00:46:22.881Z,17.00
2023-05-22T00:48:50.308Z,16.65
2023-05-22T00:51:17.559Z,16.95
2023-05-22T00:53:44.840Z,17.52
2023-05-22T00:56:12.468Z,17.80
2023-05-22T00:58:39.759Z,16.55
2023-05-22T01:01:09.676Z,16.67
2023-05-22T01:03:37.488Z,16.52
2023-05-22T01:06:04.917Z,16.75
2023-05-22T01:08:32.192Z,17.63
2023-05-22T01:11:10.795Z,17.10
2023-05-22T01:13:51.832Z,18.00
2023-05-22T01:16:39.438Z,18.17
2023-05-22T01:19:26.200Z,17.60
2023-05-22T01:22:21.684Z,18.10
2023-05-22T01:24:54.140Z,17.13
2023-05-22T01:27:38.096Z,18.30
2023-05-22T01:32:33.328Z,17.15
2023-05-22T01:35:01.960Z,19.08
2023-05-22T01:37:29.362Z,18.77
2023-05-22T01:39:56.741Z,18.23
2023-05-22T01:42:23.969Z,17.70
2023-05-22T01:44:51.514Z,18.40
2023-05-22T01:47:18.766Z,19.70
2023-05-22T01:49:47.322Z,19.83
2023-05-22T01:52:18.902Z,20.15
2023-05-22T01:55:06.400Z,18.60
2023-05-22T01:57:37.880Z,18.83
2023-05-22T02:00:10.035Z,19.27
2023-05-22T02:02:38.700Z,20.30
2023-05-22T02:05:06.615Z,19.42
2023-05-22T02:07:34.810Z,18.15
2023-05-22T02:10:03.245Z,20.30
2023-05-22T02:12:30.516Z,20.13
2023-05-22T02:14:57.879Z,19.15
2023-05-22T02:17:26.085Z,18.40
2023-05-22T02:19:53.401Z,20.52
2023-05-22T02:22:20.790Z,22.27
2023-05-22T02:24:48.794Z,21.02
2023-05-22T02:27:17.286Z,19.30
2023-05-22T02:29:44.551Z,20.00
2023-05-22T02:32:11.749Z,19.88
2023-05-22T02:34:39.076Z,19.85
2023-05-22T02:37:06.600Z,20.52
2023-05-22T02:39:33.810Z,20.00
2023-05-22T02:42:03.065Z,19.65
2023-05-22T02:44:30.406Z,19.88
2023-05-22T02:46:57.654Z,19.20
2023-05-22T02:49:24.852Z,18.85
2023-05-22T02:51:52.117Z,19.48
2023-05-22T02:54:19.329Z,19.00
2023-05-22T02:56:46.529Z,19.20
2023-05-22T02:59:13.793Z,19.92
2023-05-22T03:01:41.092Z,20.65
2023-05-22T03:04:08.400Z,21.65
2023-05-22T03:06:37.139Z,21.23
2023-05-22T03:09:04.511Z,20.55
2023-05-22T03:11:32.107Z,21.70
2023-05-22T03:13:59.303Z,20.15
2023-05-22T03:16:27.032Z,20.67
2023-05-22T03:19:08.163Z,20.38
2023-05-22T03:21:35.480Z,20.58
2023-05-22T03:24:02.945Z,22.38
2023-05-22T03:26:30.224Z,21.63
2023-05-22T03:28:57.970Z,20.75
2023-05-22T03:31:26.285Z,20.15
2023-05-22T03:33:53.546Z,21.45
2023-05-22T03:36:23.924Z,20.40
2023-05-22T03:38:51.249Z,21.55
2023-05-22T03:41:18.789Z,20.30
2023-05-22T03:43:46.607Z,21.83
2023-05-22T03:46:13.903Z,22.98
2023-05-22T03:48:41.119Z,22.73
2023-05-22T03:51:08.290Z,24.33
2023-05-22T03:53:35.519Z,22.58
2023-05-22T03:56:05.553Z,21.55
2023-05-22T03:58:32.789Z,24.77
2023-05-22T04:01:01.366Z,22.67
2023-05-22T04:03:29.001Z,22.33
2023-05-22T04:05:57.121Z,23.55
2023-05-22T04:08:24.387Z,22.92
2023-05-22T04:10:54.508Z,21.77
2023-05-22T04:13:21.904Z,22.45
2023-05-22T04:15:50.200Z,21.45
2023-05-22T04:18:17.829Z,23.10
2023-05-22T04:20:45.072Z,21.02
2023-05-22T04:23:13.236Z,19.48
2023-05-22T04:25:40.504Z,19.40
2023-05-22T04:28:09.456Z,18.73
2023-05-22T04:30:37.899Z,18.58
2023-05-22T04:33:05.677Z,17.88
2023-05-22T04:35:34.300Z,21.42
2023-05-22T04:38:02.295Z,27.05
2023-05-22T04:40:30.489Z,50.67
2023-05-22T04:43:00.042Z,34.58
2023-05-22T04:45:28.752Z,45.72
2023-05-22T04:47:56.339Z,54.25
2023-05-22T04:50:24.141Z,37.38
2023-05-22T04:52:51.487Z,16.42
2023-05-22T04:55:19.378Z,16.77
2023-05-22T04:57:47.518Z,14.52
2023-05-22T05:00:17.083Z,18.00
2023-05-22T05:02:44.584Z,34.25
2023-05-22T05:05:11.984Z,45.67
2023-05-22T05:07:39.929Z,38.83
2023-05-22T05:10:07.761Z,32.92
2023-05-22T05:12:35.113Z,36.67
2023-05-22T05:15:02.416Z,29.35
2023-05-22T05:17:29.789Z,21.45
2023-05-22T05:19:56.999Z,15.40
2023-05-22T05:22:24.189Z,19.60
2023-05-22T05:24:51.482Z,23.02
2023-05-22T05:27:18.741Z,20.50
2023-05-22T05:29:46.711Z,13.98
2023-05-22T05:32:14.146Z,23.30
2023-05-22T05:34:41.630Z,13.50
2023-05-22T05:37:09.354Z,12.75
2023-05-22T05:39:36.525Z,13.90
2023-05-22T05:42:03.848Z,13.05
2023-05-22T05:44:31.018Z,12.85
2023-05-22T05:46:58.602Z,21.85
2023-05-22T05:49:25.920Z,17.83
2023-05-22T05:51:53.349Z,18.65
2023-05-22T05:54:21.117Z,30.63
2023-05-22T05:56:48.625Z,29.42
2023-05-22T05:59:16.117Z,34.58
2023-05-22T06:01:44.595Z,30.50
2023-05-22T06:04:11.831Z,12.93
2023-05-22T06:06:39.648Z,12.52
2023-05-22T06:09:07.393Z,12.35
2023-05-22T06:11:35.304Z,11.20
2023-05-22T06:14:08.266Z,11.90
2023-05-22T06:16:35.487Z,11.52
2023-05-22T06:19:02.925Z,11.25
2023-05-22T06:21:30.251Z,11.88
2023-05-22T06:23:57.548Z,10.77
2023-05-22T06:26:25.909Z,11.05
2023-05-22T06:28:54.119Z,10.50
2023-05-22T06:31:23.107Z,10.50
2023-05-22T06:33:50.477Z,11.23
2023-05-22T06:36:19.064Z,11.15
2023-05-22T06:38:46.277Z,11.07
2023-05-22T06:41:13.460Z,10.77
2023-05-22T06:43:40.706Z,9.85
2023-05-22T06:46:07.937Z,10.05
2023-05-22T06:48:36.087Z,10.10
2023-05-22T06:51:04.220Z,9.25
2023-05-22T06:53:31.649Z,9.35
2023-05-22T06:55:58.895Z,9.93
2023-05-22T06:58:26.385Z,9.70
2023-05-22T07:00:55.346Z,10.25
2023-05-22T07:03:22.634Z,9.77
2023-05-22T07:05:50.025Z,9.75
2023-05-22T07:08:17.260Z,10.18
2023-05-22T07:10:44.574Z,10.13
2023-05-22T07:13:12.615Z,10.20
2023-05-22T07:15:39.801Z,9.93
2023-05-22T07:18:09.362Z,10.05
2023-05-22T07:20:38.527Z,9.73
2023-05-22T07:23:06.085Z,9.50
2023-05-22T07:25:33.305Z,9.07
2023-05-22T07:28:02.154Z,9.80
2023-05-22T07:30:29.758Z,9.18
2023-05-22T07:32:57.077Z,8.95
2023-05-22T07:35:24.520Z,8.80
2023-05-22T07:37:51.801Z,9.02
2023-05-22T07:40:19.072Z,10.20
2023-05-22T07:42:46.280Z,8.02
2023-05-22T07:45:13.453Z,10.07
2023-05-22T07:47:40.986Z,8.07
2023-05-22T07:50:08.633Z,7.72
2023-05-22T07:52:35.875Z,8.80
2023-05-22T07:55:03.007Z,8.70
2023-05-22T07:57:30.228Z,7.68
2023-05-22T07:59:57.510Z,7.90
2023-05-22T08:02:24.847Z,7.25
2023-05-22T08:04:52.211Z,7.68
2023-05-22T08:07:19.563Z,7.57
2023-05-22T08:09:46.954Z,7.63
2023-05-22T08:12:14.223Z,7.18
2023-05-22T08:14:41.452Z,6.90
2023-05-22T08:17:08.652Z,6.38
2023-05-22T08:19:36.291Z,6.43
2023-05-22T08:22:03.552Z,6.13
2023-05-22T08:24:31.424Z,5.70
2023-05-22T08:26:58.922Z,5.70
2023-05-22T08:29:26.173Z,6.30
2023-05-22T08:31:54.136Z,5.45
2023-05-22T08:34:21.558Z,5.00
2023-05-22T08:36:54.260Z,5.30
2023-05-22T08:39:21.689Z,5.50
2023-05-22T08:41:49.676Z,5.22
2023-05-22T08:44:17.013Z,5.55
2023-05-22T08:46:46.045Z,5.47
2023-05-22T08:49:13.830Z,5.90
2023-05-22T08:51:42.767Z,6.47
2023-05-22T08:54:10.282Z,5.80
2023-05-22T08:56:42.669Z,5.30
2023-05-22T08:59:16.859Z,5.95
2023-05-22T09:01:44.223Z,5.20
2023-05-22T09:04:11.796Z,5.70
2023-05-22T09:06:39.163Z,5.45
2023-05-22T09:09:06.421Z,5.70
2023-05-22T09:11:33.778Z,5.03
2023-05-22T09:14:10.640Z,5.05
2023-05-22T09:16:47.955Z,5.32
2023-05-22T09:19:15.964Z,5.55
2023-05-22T09:21:46.474Z,5.47
2023-05-22T09:24:13.747Z,5.85
2023-05-22T09:26:41.315Z,6.20
2023-05-22T09:29:09.074Z,5.65
2023-05-22T09:31:43.197Z,5.88
2023-05-22T09:34:14.082Z,5.85
2023-05-22T09:36:41.779Z,5.35
2023-05-22T09:39:09.577Z,5.25
2023-05-22T09:41:38.733Z,5.30
2023-05-22T09:44:16.051Z,4.47
2023-05-22T09:46:45.196Z,4.75
2023-05-22T09:49:15.751Z,4.53
2023-05-22T09:51:47.896Z,4.68
2023-05-22T09:54:16.330Z,4.97
2023-05-22T09:56:44.710Z,5.65
2023-05-22T09:59:13.944Z,5.43
2023-05-22T10:01:42.830Z,5.13
2023-05-22T10:04:14.345Z,5.53
2023-05-22T10:06:42.822Z,4.95
2023-05-22T10:09:11.575Z,5.00
2023-05-22T10:11:38.811Z,5.00
2023-05-22T10:14:07.545Z,5.18
2023-05-22T10:16:41.141Z,4.97
2023-05-22T10:19:08.855Z,5.57
2023-05-22T10:21:37.141Z,4.55
2023-05-22T10:24:04.542Z,4.70
2023-05-22T10:26:32.417Z,5.13
2023-05-22T10:29:13.493Z,4.63
2023-05-22T10:31:45.080Z,4.22
2023-05-22T10:34:20.540Z,4.80
2023-05-22T10:36:56.020Z,4.28
2023-05-22T10:39:49.267Z,4.70
2023-05-22T10:42:16.720Z,4.30
2023-05-22T10:44:44.070Z,3.97
2023-05-22T10:47:13.446Z,3.90
2023-05-22T10:49:47.003Z,4.40
2023-05-22T10:52:15.035Z,4.10
2023-05-22T10:54:46.075Z,4.40
2023-05-22T10:57:17.464Z,4.30
2023-05-22T10:59:45.307Z,4.30
2023-05-22T11:02:23.222Z,4.30
2023-05-22T11:04:50.935Z,3.88
2023-05-22T11:07:18.352Z,4.10
2023-05-22T11:09:48.226Z,4.45
2023-05-22T11:12:17.149Z,4.47
2023-05-22T11:15:03.265Z,4.13
2023-05-22T11:17:31.752Z,4.15
2023-05-22T11:20:05.518Z,3.65
2023-05-22T11:22:34.059Z,4.22
2023-05-22T11:25:03.982Z,4.10
2023-05-22T11:27:31.244Z,4.28
2023-05-22T11:30:00.491Z,4.00
2023-05-22T11:32:28.088Z,4.55
2023-05-22T11:34:57.165Z,4.45
2023-05-22T11:37:24.424Z,4.22
2023-05-22T11:39:56.418Z,4.57
2023-05-22T11:42:24.096Z,4.40
2023-05-22T11:44:51.604Z,4.43
2023-05-22T11:47:19.076Z,4.50
2023-05-22T11:49:46.948Z,4.72
2023-05-22T11:52:14.124Z,4.00
2023-05-22T11:54:41.395Z,4.43
2023-05-22T11:57:09.244Z,4.60
2023-05-22T11:59:36.707Z,4.70
2023-05-22T12:02:04.077Z,4.43
2023-05-22T12:04:31.727Z,4.50
2023-05-22T12:06:59.071Z,3.97
2023-05-22T12:09:29.319Z,4.28
2023-05-22T12:11:57.978Z,4.43
2023-05-22T12:14:27.201Z,4.10
2023-05-22T12:16:55.112Z,4.55
2023-05-22T12:19:22.622Z,4.15
2023-05-22T12:21:50.689Z,4.40
2023-05-22T12:24:23.348Z,4.20
2023-05-22T12:26:54.085Z,4.53
2023-05-22T12:29:24.473Z,4.07
2023-05-22T12:31:52.148Z,4.32
2023-05-22T12:34:19.537Z,4.82
2023-05-22T12:36:48.011Z,5.15
2023-05-22T12:39:18.631Z,4.72
2023-05-22T12:41:46.856Z,4.93
2023-05-22T12:44:16.413Z,4.75
2023-05-22T12:46:43.700Z,4.80
2023-05-22T12:49:11.085Z,5.05
2023-05-22T12:51:38.534Z,5.28
2023-05-22T12:54:06.083Z,4.88
2023-05-22T12:56:33.446Z,4.47
2023-05-22T12:59:00.712Z,4.60
2023-05-22T13:01:28.012Z,4.63
2023-05-22T13:03:55.280Z,4.60
2023-05-22T13:06:22.508Z,4.88
2023-05-22T13:08:49.779Z,5.07
2023-05-22T13:11:17.240Z,5.82
2023-05-22T13:13:44.464Z,5.10
2023-05-22T13:16:12.186Z,5.43
2023-05-22T13:18:39.473Z,5.22
2023-05-22T13:21:06.774Z,4.88
2023-05-22T13:23:33.968Z,4.95
2023-05-22T13:26:02.180Z,5.05
2023-05-22T13:28:29.531Z,4.55
2023-05-22T13:30:56.745Z,4.72
2023-05-22T13:33:24.697Z,4.38
2023-05-22T13:35:52.072Z,4.72
2023-05-22T13:38:19.438Z,4.30
2023-05-22T13:40:48.486Z,4.68
2023-05-22T13:43:18.963Z,4.65
2023-05-22T13:45:46.292Z,4.10
2023-05-22T13:48:13.747Z,4.32
2023-05-22T13:50:41.320Z,4.45
2023-05-22T13:53:08.679Z,3.60
2023-05-22T13:55:36.247Z,4.38
2023-05-22T13:58:04.945Z,4.22
2023-05-22T14:00:32.148Z,4.60
2023-05-22T14:02:59.570Z,4.97
2023-05-22T14:05:26.919Z,4.75
2023-05-22T14:07:55.909Z,4.70
2023-05-22T14:10:23.105Z,5.45
2023-05-22T14:12:50.475Z,4.50
2023-05-22T14:15:17.986Z,5.10
2023-05-22T14:17:45.537Z,4.57
2023-05-22T14:20:12.891Z,4.75
2023-05-22T14:22:55.988Z,4.90
2023-05-22T14:25:24.685Z,4.53
2023-05-22T14:27:51.943Z,4.80
2023-05-22T14:30:19.401Z,4.25
2023-05-22T14:32:47.034Z,4.47
2023-05-22T14:35:14.464Z,4.50
2023-05-22T14:37:41.877Z,4.28
2023-05-22T14:40:09.455Z,4.63
2023-05-22T14:42:36.785Z,4.20
2023-05-22T14:45:04.804Z,4.15
2023-05-22T14:47:32.017Z,3.80
2023-05-22T14:50:14.129Z,4.13
2023-05-22T14:52:45.206Z,3.75
2023-05-22T14:55:12.385Z,4.05
2023-05-22T14:57:39.761Z,4.32
2023-05-22T15:00:08.982Z,3.47
2023-05-22T15:02:36.288Z,4.68
2023-05-22T15:05:03.576Z,4.72
2023-05-22T15:07:43.069Z,4.07
2023-05-22T15:10:11.010Z,4.30
2023-05-22T15:12:38.218Z,4.65
2023-05-22T15:15:05.875Z,4.18
2023-05-22T15:17:33.146Z,4.15
2023-05-22T15:20:00.547Z,4.13
2023-05-22T15:22:27.730Z,4.53
2023-05-22T15:25:17.458Z,4.97
2023-05-22T15:27:44.744Z,4.20
2023-05-22T15:30:12.392Z,4.00
2023-05-22T15:32:39.794Z,3.88
2023-05-22T15:35:07.764Z,5.28
2023-05-22T15:37:36.487Z,3.78
2023-05-22T15:40:06.002Z,3.83
2023-05-22T15:42:33.450Z,3.42
2023-05-22T15:45:01.285Z,4.15
2023-05-22T15:47:28.725Z,3.65
2023-05-22T15:49:56.031Z,3.35
2023-05-22T15:52:24.493Z,3.30
2023-05-22T15:54:51.889Z,3.58
2023-05-22T15:57:19.116Z,4.03
2023-05-22T15:59:50.739Z,3.55
2023-05-22T16:02:19.069Z,4.15
2023-05-22T16:04:46.545Z,4.05
2023-05-22T16:07:13.853Z,3.90
2023-05-22T16:09:43.246Z,4.53
2023-05-22T16:12:10.692Z,4.03
2023-05-22T16:14:39.891Z,3.78
2023-05-22T16:17:07.348Z,4.07
2023-05-22T16:19:35.103Z,4.30
2023-05-22T16:22:03.059Z,4.10
2023-05-22T16:24:30.283Z,4.63
2023-05-22T16:26:58.641Z,4.32
2023-05-22T16:29:25.907Z,4.15
2023-05-22T16:31:53.209Z,4.32
2023-05-22T16:34:20.544Z,4.30
2023-05-22T16:36:47.794Z,4.72
2023-05-22T16:39:15.720Z,4.93
2023-05-22T16:41:42.942Z,4.38
2023-05-22T16:44:10.172Z,4.22
2023-05-22T16:46:37.425Z,6.38
2023-05-22T16:49:04.708Z,6.38
2023-05-22T16:51:32.191Z,4.30
2023-05-22T16:53:59.365Z,5.47
2023-05-22T16:56:26.629Z,5.40
2023-05-22T16:58:53.902Z,4.75
2023-05-22T17:01:21.754Z,4.20
2023-05-22T17:03:49.332Z,4.63
2023-05-22T17:06:18.263Z,4.68
2023-05-22T17:08:46.992Z,5.00
2023-05-22T17:11:14.200Z,4.18
2023-05-22T17:13:41.416Z,4.80
2023-05-22T17:16:08.826Z,3.78
2023-05-22T17:18:36.723Z,4.22
2023-05-22T17:21:14.796Z,7.05
2023-05-22T17:23:42.011Z,4.03
2023-05-22T17:26:09.224Z,4.00
2023-05-22T17:28:36.601Z,3.70
2023-05-22T17:31:03.818Z,3.65
2023-05-22T17:33:32.025Z,4.30
2023-05-22T17:35:59.317Z,3.92
2023-05-22T17:38:26.742Z,4.13
2023-05-22T17:40:54.117Z,4.40
2023-05-22T17:43:21.489Z,4.00
2023-05-22T17:45:53.193Z,4.05
2023-05-22T17:48:27.438Z,5.22
2023-05-22T17:50:54.799Z,4.78
2023-05-22T17:53:22.225Z,5.57
2023-05-22T17:55:50.082Z,5.18
2023-05-22T17:58:17.430Z,4.78
2023-05-22T18:00:45.798Z,4.85
2023-05-22T18:03:13.439Z,4.88
2023-05-22T18:05:40.856Z,4.82
2023-05-22T18:08:08.088Z,4.88
2023-05-22T18:10:35.843Z,4.30
2023-05-22T18:13:03.142Z,4.07
2023-05-22T18:15:30.524Z,4.57
2023-05-22T18:17:57.727Z,4.30
2023-05-22T18:20:25.383Z,4.28
2023-05-22T18:22:52.685Z,3.95
2023-05-22T18:25:19.860Z,4.13
2023-05-22T18:27:47.092Z,4.20
2023-05-22T18:30:14.541Z,3.60
2023-05-22T18:32:41.751Z,3.38
2023-05-22T18:35:09.296Z,3.40
2023-05-22T18:37:36.910Z,3.50
2023-05-22T18:40:06.760Z,3.47
2023-05-22T18:42:33.983Z,3.13
2023-05-22T18:45:01.309Z,3.85
2023-05-22T18:47:28.775Z,4.30
2023-05-22T18:49:56.136Z,4.15
2023-05-22T18:52:23.426Z,4.13
2023-05-22T18:54:50.856Z,3.70
2023-05-22T18:57:18.054Z,3.38
2023-05-22T18:59:46.230Z,3.80
2023-05-22T19:02:13.562Z,4.38
2023-05-22T19:04:40.853Z,4.53
2023-05-22T19:07:09.069Z,3.95
2023-05-22T19:09:36.314Z,4.78
2023-05-22T19:12:03.788Z,8.77
2023-05-22T19:14:31.035Z,6.18
2023-05-22T19:17:01.107Z,5.18
2023-05-22T19:19:28.455Z,3.83
2023-05-22T19:21:55.778Z,4.53
2023-05-22T19:24:23.100Z,3.95
2023-05-22T19:26:50.322Z,4.38
2023-05-22T19:29:17.491Z,4.30
2023-05-22T19:31:44.836Z,4.53
2023-05-22T19:34:12.156Z,4.72
2023-05-22T19:36:39.428Z,4.70
2023-05-22T19:39:06.741Z,4.70
2023-05-22T19:41:34.162Z,4.70
2023-05-22T19:44:01.316Z,4.47
2023-05-22T19:46:28.682Z,4.93
2023-05-22T19:48:56.301Z,4.68
2023-05-22T19:51:23.563Z,5.00
2023-05-22T19:53:50.814Z,4.60
2023-05-22T19:56:18.039Z,4.85
2023-05-22T19:58:45.350Z,5.15
2023-05-22T20:01:12.699Z,5.00
2023-05-22T20:03:40.104Z,4.90
2023-05-22T20:06:07.730Z,5.15
2023-05-22T20:08:36.444Z,4.90
2023-05-22T20:11:03.630Z,5.03
2023-05-22T20:13:31.140Z,4.78
2023-05-22T20:15:58.313Z,5.10
2023-05-22T20:18:25.562Z,5.10
2023-05-22T20:20:52.773Z,5.15
2023-05-22T20:23:20.069Z,5.10
2023-05-22T20:25:47.285Z,5.10
2023-05-22T20:28:14.498Z,5.75
2023-05-22T20:30:41.771Z,4.95
2023-05-22T20:33:09.088Z,5.32
2023-05-22T20:35:37.203Z,5.28
2023-05-22T20:38:04.581Z,5.07
2023-05-22T20:40:36.863Z,5.43
2023-05-22T20:43:04.082Z,5.25
2023-05-22T20:45:31.509Z,5.45
2023-05-22T20:47:58.823Z,5.35
2023-05-22T20:50:26.206Z,5.95
2023-05-22T20:52:53.471Z,5.28
2023-05-22T20:55:20.939Z,5.30
2023-05-22T20:57:48.277Z,5.90
2023-05-22T21:00:15.697Z,5.82
2023-05-22T21:02:42.996Z,5.88
2023-05-22T21:05:10.548Z,6.13
2023-05-22T21:07:37.843Z,6.32
2023-05-22T21:10:05.200Z,6.50
2023-05-22T21:12:32.340Z,5.70
2023-05-22T21:14:59.548Z,5.53
2023-05-22T21:17:26.801Z,5.45
2023-05-22T21:19:54.039Z,6.00
2023-05-22T21:22:21.338Z,5.55
2023-05-22T21:24:48.853Z,5.80
2023-05-22T21:27:16.101Z,6.10
2023-05-22T21:29:43.364Z,5.80
2023-05-22T21:32:10.669Z,6.30
2023-05-22T21:34:37.926Z,5.90
2023-05-22T21:37:05.396Z,6.03
2023-05-22T21:39:32.668Z,6.70
2023-05-22T21:41:59.929Z,6.50
2023-05-22T21:44:27.110Z,6.47
2023-05-22T21:46:54.441Z,6.28
2023-05-22T21:49:21.795Z,6.43
2023-05-22T21:51:48.972Z,6.38
2023-05-22T21:54:16.234Z,6.30
2023-05-22T21:56:43.453Z,6.18
2023-05-22T21:59:10.708Z,6.70
2023-05-22T22:01:37.941Z,5.40
2023-05-22T22:04:05.280Z,5.90
2023-05-22T22:06:32.561Z,6.68
2023-05-22T22:09:00.329Z,6.35
2023-05-22T22:11:27.608Z,6.40
2023-05-22T22:13:55.098Z,6.40
2023-05-22T22:16:22.472Z,6.38
2023-05-22T22:18:50.352Z,6.72
2023-05-22T22:21:17.939Z,6.10
2023-05-22T22:23:45.141Z,6.70
2023-05-22T22:26:12.826Z,6.18
2023-05-22T22:28:40.101Z,6.32
2023-05-22T22:31:07.328Z,6.70
2023-05-22T22:33:34.781Z,6.40
2023-05-22T22:36:02.019Z,6.05
2023-05-22T22:38:32.746Z,6.85
2023-05-22T22:41:00.876Z,6.75
2023-05-22T22:43:28.083Z,6.82
2023-05-22T22:45:55.923Z,6.30
2023-05-22T22:48:23.417Z,6.85
2023-05-22T22:50:52.422Z,6.90
2023-05-22T22:53:19.855Z,6.30
2023-05-22T22:55:55.396Z,6.82
2023-05-22T22:58:22.919Z,6.38
2023-05-22T23:00:50.156Z,6.90
2023-05-22T23:03:17.334Z,6.63
2023-05-22T23:05:44.753Z,6.90
2023-05-22T23:08:12.204Z,6.78
2023-05-22T23:10:39.557Z,6.95
2023-05-22T23:13:06.831Z,7.47
2023-05-22T23:15:34.676Z,6.93
2023-05-22T23:18:01.990Z,7.22
2023-05-22T23:20:29.190Z,7.28
2023-05-22T23:22:56.357Z,8.07
2023-05-22T23:25:23.615Z,8.10
2023-05-22T23:27:52.070Z,7.82
2023-05-22T23:30:19.367Z,7.75
2023-05-22T23:32:46.527Z,7.88
2023-05-22T23:35:13.837Z,7.93
2023-05-22T23:37:41.198Z,8.00
2023-05-22T23:40:09.102Z,8.05
2023-05-22T23:42:36.314Z,8.18
2023-05-22T23:45:04.234Z,8.20
2023-05-22T23:47:31.706Z,7.97
2023-05-22T23:49:59.695Z,8.90
2023-05-22T23:52:27.645Z,8.30
2023-05-22T23:54:54.933Z,8.70
2023-05-22T23:57:22.233Z,8.85
2023-05-22T23:59:49.444Z,8.60
